sensor_id;sensor_type;location;lat;lon;timestamp;pressure;altitude;pressure_sealevel;temperature;humidity
79372;BME280;68914;51.262;6.802;2023-05-01T00:00:52;101435.78;;;14.61;53.73
79372;BME280;68914;51.262;6.802;2023-05-01T00:01:53;101438.25;;;14.62;53.28
79372;BME280;68914;51.262;6.802;2023-05-01T00:02:53;101440.28;;;14.47;53.90
79372;BME280;68914;51.262;6.802;2023-05-01T00:03:54;101436.03;;;14.46;53.93
79372;BME280;68914;51.262;6.802;2023-05-01T00:04:55;101442.72;;;14.48;54.21
79372;BME280;68914;51.262;6.802;2023-05-01T00:06:02;101437.66;;;14.47;54.40
79372;BME280;68914;51.262;6.802;2023-05-01T00:07:04;101433.16;;;14.47;53.68
79372;BME280;68914;51.262;6.802;2023-05-01T00:08:05;101429.06;;;14.45;53.72
79372;BME280;68914;51.262;6.802;2023-05-01T00:09:05;101436.03;;;14.46;53.72
79372;BME280;68914;51.262;6.802;2023-05-01T00:10:06;101433.16;;;14.41;54.33
79372;BME280;68914;51.262;6.802;2023-05-01T00:11:07;101427.06;;;14.27;54.74
79372;BME280;68914;51.262;6.802;2023-05-01T00:12:11;101428.69;;;14.35;54.05
79372;BME280;68914;51.262;6.802;2023-05-01T00:13:12;101431.13;;;14.43;53.87
79372;BME280;68914;51.262;6.802;2023-05-01T00:14:13;101426.44;;;14.38;54.01
79372;BME280;68914;51.262;6.802;2023-05-01T00:15:13;101425.44;;;14.19;54.27
79372;BME280;68914;51.262;6.802;2023-05-01T00:16:14;101421.38;;;14.10;54.53
79372;BME280;68914;51.262;6.802;2023-05-01T00:17:17;101418.72;;;14.23;54.10
79372;BME280;68914;51.262;6.802;2023-05-01T00:18:17;101423.81;;;14.18;54.44
79372;BME280;68914;51.262;6.802;2023-05-01T00:19:18;101420.56;;;14.23;54.48
79372;BME280;68914;51.262;6.802;2023-05-01T00:20:19;101425.84;;;14.23;54.05
79372;BME280;68914;51.262;6.802;2023-05-01T00:21:19;101423.41;;;14.21;54.63
79372;BME280;68914;51.262;6.802;2023-05-01T00:22:20;101423.22;;;14.10;54.78
79372;BME280;68914;51.262;6.802;2023-05-01T00:23:20;101416.91;;;14.04;55.68
79372;BME280;68914;51.262;6.802;2023-05-01T00:24:22;101419.53;;;14.11;55.42
79372;BME280;68914;51.262;6.802;2023-05-01T00:25:22;101418.94;;;14.02;55.48
79372;BME280;68914;51.262;6.802;2023-05-01T00:26:23;101406.50;;;13.96;55.65
79372;BME280;68914;51.262;6.802;2023-05-01T00:27:29;101415.28;;;14.03;55.67
79372;BME280;68914;51.262;6.802;2023-05-01T00:28:30;101415.69;;;14.07;55.58
79372;BME280;68914;51.262;6.802;2023-05-01T00:29:30;101413.03;;;14.07;55.56
79372;BME280;68914;51.262;6.802;2023-05-01T00:30:31;101410.34;;;14.13;55.00
79372;BME280;68914;51.262;6.802;2023-05-01T00:31:33;101409.97;;;14.10;55.01
79372;BME280;68914;51.262;6.802;2023-05-01T00:32:33;101417.31;;;14.14;54.82
79372;BME280;68914;51.262;6.802;2023-05-01T00:33:34;101411.19;;;14.07;55.10
79372;BME280;68914;51.262;6.802;2023-05-01T00:34:35;101410.56;;;14.05;55.06
79372;BME280;68914;51.262;6.802;2023-05-01T00:35:35;101411.59;;;13.97;55.82
79372;BME280;68914;51.262;6.802;2023-05-01T00:36:36;101405.88;;;14.07;54.89
79372;BME280;68914;51.262;6.802;2023-05-01T00:37:37;101410.59;;;13.98;55.63
79372;BME280;68914;51.262;6.802;2023-05-01T00:38:37;101408.53;;;14.00;55.87
79372;BME280;68914;51.262;6.802;2023-05-01T00:39:38;101410.59;;;13.98;55.77
79372;BME280;68914;51.262;6.802;2023-05-01T00:40:45;101405.06;;;14.00;55.59
79372;BME280;68914;51.262;6.802;2023-05-01T00:41:46;101399.75;;;14.00;55.56
79372;BME280;68914;51.262;6.802;2023-05-01T00:42:46;101405.69;;;13.95;56.12
79372;BME280;68914;51.262;6.802;2023-05-01T00:43:47;101402.41;;;13.93;56.60
79372;BME280;68914;51.262;6.802;2023-05-01T00:44:48;101403.44;;;13.99;56.55
79372;BME280;68914;51.262;6.802;2023-05-01T00:45:48;101398.94;;;13.99;56.05
79372;BME280;68914;51.262;6.802;2023-05-01T00:46:49;101401.59;;;13.99;56.22
79372;BME280;68914;51.262;6.802;2023-05-01T00:47:50;101398.75;;;13.94;56.22
79372;BME280;68914;51.262;6.802;2023-05-01T00:48:51;101392.66;;;13.87;56.33
79372;BME280;68914;51.262;6.802;2023-05-01T00:49:53;101405.91;;;13.87;56.33
79372;BME280;68914;51.262;6.802;2023-05-01T00:50:55;101395.28;;;13.81;56.32
79372;BME280;68914;51.262;6.802;2023-05-01T00:51:55;101395.06;;;13.89;56.01
79372;BME280;68914;51.262;6.802;2023-05-01T00:52:57;101397.72;;;13.95;55.59
79372;BME280;68914;51.262;6.802;2023-05-01T00:53:58;101395.09;;;13.95;56.17
79372;BME280;68914;51.262;6.802;2023-05-01T00:54:59;101393.44;;;13.88;56.55
79372;BME280;68914;51.262;6.802;2023-05-01T00:56:00;101387.13;;;13.89;56.41
79372;BME280;68914;51.262;6.802;2023-05-01T00:57:01;101390.59;;;13.96;55.89
79372;BME280;68914;51.262;6.802;2023-05-01T00:58:03;101380.19;;;13.88;56.05
79372;BME280;68914;51.262;6.802;2023-05-01T00:59:04;101380.19;;;13.81;56.24
79372;BME280;68914;51.262;6.802;2023-05-01T01:00:05;101381.41;;;13.85;55.93
79372;BME280;68914;51.262;6.802;2023-05-01T01:01:07;101380.00;;;13.83;56.36
79372;BME280;68914;51.262;6.802;2023-05-01T01:02:10;101385.53;;;13.74;56.16
79372;BME280;68914;51.262;6.802;2023-05-01T01:03:14;101382.06;;;13.74;56.30
79372;BME280;68914;51.262;6.802;2023-05-01T01:04:15;101374.72;;;13.63;56.76
79372;BME280;68914;51.262;6.802;2023-05-01T01:05:16;101377.38;;;13.63;57.22
79372;BME280;68914;51.262;6.802;2023-05-01T01:13:29;101366.34;;;13.72;56.82
79372;BME280;68914;51.262;6.802;2023-05-01T01:15:38;101366.53;;;13.64;57.10
79372;BME280;68914;51.262;6.802;2023-05-01T01:17:03;101365.13;;;13.55;57.23
79372;BME280;68914;51.262;6.802;2023-05-01T01:19:29;101365.94;;;13.56;57.36
79372;BME280;68914;51.262;6.802;2023-05-01T01:20:37;101361.84;;;13.53;57.66
79372;BME280;68914;51.262;6.802;2023-05-01T01:21:44;101364.72;;;13.58;57.32
79372;BME280;68914;51.262;6.802;2023-05-01T01:22:54;101354.53;;;13.35;57.89
79372;BME280;68914;51.262;6.802;2023-05-01T01:28:33;101355.69;;;13.19;58.68
79372;BME280;68914;51.262;6.802;2023-05-01T01:29:55;101351.66;;;13.23;58.24
79372;BME280;68914;51.262;6.802;2023-05-01T01:31:19;101358.56;;;13.24;58.75
79372;BME280;68914;51.262;6.802;2023-05-01T01:34:12;101339.59;;;13.21;58.06
79372;BME280;68914;51.262;6.802;2023-05-01T01:35:18;101354.22;;;13.10;58.61
79372;BME280;68914;51.262;6.802;2023-05-01T01:38:04;101346.69;;;13.14;58.23
79372;BME280;68914;51.262;6.802;2023-05-01T01:39:29;101346.69;;;13.00;58.43
79372;BME280;68914;51.262;6.802;2023-05-01T01:40:42;101349.97;;;13.09;58.27
79372;BME280;68914;51.262;6.802;2023-05-01T01:41:48;101350.59;;;13.11;58.11
79372;BME280;68914;51.262;6.802;2023-05-01T01:42:54;101343.00;;;13.01;58.21
79372;BME280;68914;51.262;6.802;2023-05-01T01:44:12;101344.81;;;12.94;58.52
79372;BME280;68914;51.262;6.802;2023-05-01T01:45:36;101341.22;;;13.15;57.66
79372;BME280;68914;51.262;6.802;2023-05-01T01:46:40;101333.94;;;13.24;56.91
79372;BME280;68914;51.262;6.802;2023-05-01T01:47:43;101343.84;;;13.09;57.71
79372;BME280;68914;51.262;6.802;2023-05-01T01:48:46;101339.75;;;13.06;57.73
79372;BME280;68914;51.262;6.802;2023-05-01T01:49:51;101339.38;;;13.16;57.46
79372;BME280;68914;51.262;6.802;2023-05-01T01:50:54;101337.59;;;13.29;57.05
79372;BME280;68914;51.262;6.802;2023-05-01T01:51:58;101334.13;;;13.36;56.93
79372;BME280;68914;51.262;6.802;2023-05-01T01:53:00;101338.63;;;13.35;56.82
79372;BME280;68914;51.262;6.802;2023-05-01T01:54:03;101331.88;;;13.26;56.92
79372;BME280;68914;51.262;6.802;2023-05-01T01:55:07;101325.78;;;13.25;56.77
79372;BME280;68914;51.262;6.802;2023-05-01T01:56:09;101322.72;;;13.28;56.89
79372;BME280;68914;51.262;6.802;2023-05-01T01:57:11;101331.91;;;13.33;56.72
79372;BME280;68914;51.262;6.802;2023-05-01T01:58:14;101326.78;;;13.24;56.92
79372;BME280;68914;51.262;6.802;2023-05-01T01:59:17;101325.94;;;13.11;57.64
79372;BME280;68914;51.262;6.802;2023-05-01T02:00:20;101324.72;;;13.13;57.47
79372;BME280;68914;51.262;6.802;2023-05-01T02:01:24;101327.97;;;13.15;57.26
79372;BME280;68914;51.262;6.802;2023-05-01T02:02:26;101330.06;;;13.26;57.02
79372;BME280;68914;51.262;6.802;2023-05-01T02:03:28;101320.91;;;13.36;56.44
79372;BME280;68914;51.262;6.802;2023-05-01T02:04:31;101316.97;;;13.18;57.04
79372;BME280;68914;51.262;6.802;2023-05-01T02:05:33;101321.47;;;13.11;57.66
79372;BME280;68914;51.262;6.802;2023-05-01T02:06:36;101318.44;;;13.27;56.81
79372;BME280;68914;51.262;6.802;2023-05-01T02:07:38;101309.47;;;13.28;56.90
79372;BME280;68914;51.262;6.802;2023-05-01T02:08:41;101311.13;;;13.43;56.72
79372;BME280;68914;51.262;6.802;2023-05-01T02:09:44;101308.06;;;13.33;56.53
79372;BME280;68914;51.262;6.802;2023-05-01T02:10:46;101314.34;;;13.38;56.45
79372;BME280;68914;51.262;6.802;2023-05-01T02:11:49;101310.91;;;13.24;56.85
79372;BME280;68914;51.262;6.802;2023-05-01T02:12:52;101309.91;;;13.32;56.59
79372;BME280;68914;51.262;6.802;2023-05-01T02:13:55;101313.56;;;13.24;56.77
79372;BME280;68914;51.262;6.802;2023-05-01T02:14:57;101298.47;;;13.45;56.23
79372;BME280;68914;51.262;6.802;2023-05-01T02:15:59;101306.63;;;13.37;56.15
79372;BME280;68914;51.262;6.802;2023-05-01T02:17:04;101301.72;;;13.34;56.19
79372;BME280;68914;51.262;6.802;2023-05-01T02:18:05;101303.94;;;13.03;57.05
79372;BME280;68914;51.262;6.802;2023-05-01T02:19:06;101294.56;;;13.01;56.59
79372;BME280;68914;51.262;6.802;2023-05-01T02:20:09;101299.06;;;13.20;56.43
79372;BME280;68914;51.262;6.802;2023-05-01T02:21:13;101301.94;;;13.32;56.13
79372;BME280;68914;51.262;6.802;2023-05-01T02:22:16;101296.63;;;13.25;56.31
79372;BME280;68914;51.262;6.802;2023-05-01T02:23:18;101298.28;;;13.26;56.28
79372;BME280;68914;51.262;6.802;2023-05-01T02:24:20;101293.81;;;13.47;55.21
79372;BME280;68914;51.262;6.802;2023-05-01T02:25:23;101288.88;;;13.57;55.17
79372;BME280;68914;51.262;6.802;2023-05-01T02:26:25;101291.53;;;13.57;55.00
79372;BME280;68914;51.262;6.802;2023-05-01T02:27:31;101291.13;;;13.67;54.65
79372;BME280;68914;51.262;6.802;2023-05-01T02:28:35;101284.00;;;13.67;54.87
79372;BME280;68914;51.262;6.802;2023-05-01T02:29:36;101282.78;;;13.63;54.67
79372;BME280;68914;51.262;6.802;2023-05-01T02:30:38;101281.53;;;13.72;54.21
79372;BME280;68914;51.262;6.802;2023-05-01T02:31:38;101283.78;;;13.75;54.31
79372;BME280;68914;51.262;6.802;2023-05-01T02:32:39;101291.13;;;13.67;54.08
79372;BME280;68914;51.262;6.802;2023-05-01T02:33:40;101281.94;;;13.83;54.04
79372;BME280;68914;51.262;6.802;2023-05-01T02:34:40;101278.88;;;13.79;53.84
79372;BME280;68914;51.262;6.802;2023-05-01T02:35:43;101278.88;;;13.72;54.04
79372;BME280;68914;51.262;6.802;2023-05-01T02:36:44;101278.88;;;13.66;54.00
79372;BME280;68914;51.262;6.802;2023-05-01T02:37:44;101281.13;;;13.75;53.91
79372;BME280;68914;51.262;6.802;2023-05-01T02:38:45;101283.78;;;13.69;54.01
79372;BME280;68914;51.262;6.802;2023-05-01T02:39:46;101280.72;;;13.78;53.61
79372;BME280;68914;51.262;6.802;2023-05-01T02:40:52;101274.16;;;13.88;53.39
79372;BME280;68914;51.262;6.802;2023-05-01T02:41:57;101270.75;;;13.67;53.89
79372;BME280;68914;51.262;6.802;2023-05-01T02:43:00;101266.66;;;13.65;53.80
79372;BME280;68914;51.262;6.802;2023-05-01T02:44:03;101273.00;;;13.57;54.08
79372;BME280;68914;51.262;6.802;2023-05-01T02:45:11;101265.66;;;13.52;54.13
79372;BME280;68914;51.262;6.802;2023-05-01T02:46:16;101265.84;;;13.71;53.87
79372;BME280;68914;51.262;6.802;2023-05-01T02:47:19;101258.72;;;13.65;54.03
79372;BME280;68914;51.262;6.802;2023-05-01T02:48:27;101266.84;;;13.76;53.41
79372;BME280;68914;51.262;6.802;2023-05-01T02:49:29;101263.16;;;13.77;53.56
79372;BME280;68914;51.262;6.802;2023-05-01T02:50:31;101256.06;;;13.78;53.74
79372;BME280;68914;51.262;6.802;2023-05-01T02:51:33;101262.81;;;13.61;53.94
79372;BME280;68914;51.262;6.802;2023-05-01T02:52:35;101259.34;;;13.67;54.03
79372;BME280;68914;51.262;6.802;2023-05-01T02:53:59;101260.16;;;13.74;53.67
79372;BME280;68914;51.262;6.802;2023-05-01T02:54:59;101260.78;;;13.56;53.91
79372;BME280;68914;51.262;6.802;2023-05-01T02:56:02;101250.59;;;13.60;53.84
79372;BME280;68914;51.262;6.802;2023-05-01T02:57:03;101251.38;;;13.60;53.74
79372;BME280;68914;51.262;6.802;2023-05-01T02:58:04;101247.47;;;13.76;53.50
79372;BME280;68914;51.262;6.802;2023-05-01T02:59:05;101253.00;;;13.61;53.45
79372;BME280;68914;51.262;6.802;2023-05-01T03:00:06;101257.69;;;13.72;53.50
79372;BME280;68914;51.262;6.802;2023-05-01T03:01:08;101254.63;;;13.69;53.86
79372;BME280;68914;51.262;6.802;2023-05-01T03:02:10;101254.00;;;13.80;52.99
79372;BME280;68914;51.262;6.802;2023-05-01T03:03:11;101250.13;;;13.76;53.35
79372;BME280;68914;51.262;6.802;2023-05-01T03:04:12;101251.38;;;13.53;54.05
79372;BME280;68914;51.262;6.802;2023-05-01T03:05:12;101244.47;;;13.46;54.16
79372;BME280;68914;51.262;6.802;2023-05-01T03:06:13;101243.88;;;13.37;54.27
79372;BME280;68914;51.262;6.802;2023-05-01T03:07:13;101241.19;;;13.70;53.40
79372;BME280;68914;51.262;6.802;2023-05-01T03:08:14;101241.38;;;13.75;53.57
79372;BME280;68914;51.262;6.802;2023-05-01T03:09:15;101239.13;;;13.79;52.97
79372;BME280;68914;51.262;6.802;2023-05-01T03:10:16;101242.00;;;13.58;53.55
79372;BME280;68914;51.262;6.802;2023-05-01T03:11:17;101240.38;;;13.57;53.87
79372;BME280;68914;51.262;6.802;2023-05-01T03:12:17;101242.19;;;13.69;53.38
79372;BME280;68914;51.262;6.802;2023-05-01T03:13:18;101238.31;;;13.72;53.08
79372;BME280;68914;51.262;6.802;2023-05-01T03:14:19;101233.59;;;13.81;52.93
79372;BME280;68914;51.262;6.802;2023-05-01T03:15:20;101236.06;;;13.75;52.85
79372;BME280;68914;51.262;6.802;2023-05-01T03:16:20;101227.13;;;13.63;52.89
79372;BME280;68914;51.262;6.802;2023-05-01T03:17:21;101230.78;;;13.75;53.10
79372;BME280;68914;51.262;6.802;2023-05-01T03:18:22;101232.22;;;13.78;52.91
79372;BME280;68914;51.262;6.802;2023-05-01T03:19:23;101226.28;;;13.76;52.87
79372;BME280;68914;51.262;6.802;2023-05-01T03:20:24;101225.47;;;13.75;52.49
79372;BME280;68914;51.262;6.802;2023-05-01T03:21:25;101226.28;;;13.83;52.60
79372;BME280;68914;51.262;6.802;2023-05-01T03:22:28;101224.09;;;13.60;53.48
79372;BME280;68914;51.262;6.802;2023-05-01T03:23:29;101221.44;;;13.66;53.58
79372;BME280;68914;51.262;6.802;2023-05-01T03:24:29;101221.66;;;13.58;53.30
79372;BME280;68914;51.262;6.802;2023-05-01T03:25:30;101217.75;;;13.67;52.96
79372;BME280;68914;51.262;6.802;2023-05-01T03:26:31;101218.78;;;13.60;53.35
79372;BME280;68914;51.262;6.802;2023-05-01T03:27:32;101219.59;;;13.53;53.55
79372;BME280;68914;51.262;6.802;2023-05-01T03:28:33;101218.16;;;13.71;53.19
79372;BME280;68914;51.262;6.802;2023-05-01T03:29:34;101214.88;;;13.82;52.81
79372;BME280;68914;51.262;6.802;2023-05-01T03:30:37;101217.28;;;13.84;53.00
79372;BME280;68914;51.262;6.802;2023-05-01T03:31:38;101210.31;;;13.96;52.13
79372;BME280;68914;51.262;6.802;2023-05-01T03:32:40;101207.31;;;13.79;52.50
79372;BME280;68914;51.262;6.802;2023-05-01T03:33:47;101213.38;;;13.93;51.88
79372;BME280;68914;51.262;6.802;2023-05-01T03:34:50;101209.00;;;13.67;53.04
79372;BME280;68914;51.262;6.802;2023-05-01T03:35:58;101206.69;;;13.84;52.66
79372;BME280;68914;51.262;6.802;2023-05-01T03:37:00;101209.34;;;13.84;53.03
79372;BME280;68914;51.262;6.802;2023-05-01T03:38:01;101206.28;;;13.80;52.69
79372;BME280;68914;51.262;6.802;2023-05-01T03:39:34;101205.03;;;13.89;52.15
79372;BME280;68914;51.262;6.802;2023-05-01T03:40:53;101202.03;;;13.79;52.54
79372;BME280;68914;51.262;6.802;2023-05-01T03:42:19;101200.97;;;13.87;52.61
79372;BME280;68914;51.262;6.802;2023-05-01T03:43:20;101201.97;;;13.86;52.73
79372;BME280;68914;51.262;6.802;2023-05-01T03:44:21;101200.78;;;13.82;52.62
79372;BME280;68914;51.262;6.802;2023-05-01T03:45:22;101200.81;;;13.68;53.12
79372;BME280;68914;51.262;6.802;2023-05-01T03:46:23;101197.53;;;13.73;52.30
79372;BME280;68914;51.262;6.802;2023-05-01T03:47:23;101191.88;;;13.63;52.86
79372;BME280;68914;51.262;6.802;2023-05-01T03:48:24;101202.22;;;13.77;52.65
79372;BME280;68914;51.262;6.802;2023-05-01T03:49:25;101195.47;;;13.82;52.67
79372;BME280;68914;51.262;6.802;2023-05-01T03:50:25;101198.78;;;13.70;52.80
79372;BME280;68914;51.262;6.802;2023-05-01T03:51:26;101196.31;;;13.82;52.27
79372;BME280;68914;51.262;6.802;2023-05-01T03:52:28;101195.91;;;13.78;52.78
79372;BME280;68914;51.262;6.802;2023-05-01T03:53:30;101200.59;;;13.76;52.29
79372;BME280;68914;51.262;6.802;2023-05-01T03:54:32;101198.75;;;13.84;52.23
79372;BME280;68914;51.262;6.802;2023-05-01T03:55:57;101198.53;;;13.85;52.07
79372;BME280;68914;51.262;6.802;2023-05-01T03:56:57;101199.97;;;13.81;52.05
79372;BME280;68914;51.262;6.802;2023-05-01T03:57:58;101198.22;;;13.55;53.05
79372;BME280;68914;51.262;6.802;2023-05-01T03:58:59;101193.50;;;13.64;52.41
79372;BME280;68914;51.262;6.802;2023-05-01T04:00:00;101196.56;;;13.67;52.25
79372;BME280;68914;51.262;6.802;2023-05-01T04:01:01;101196.25;;;13.89;51.70
79372;BME280;68914;51.262;6.802;2023-05-01T04:02:04;101193.78;;;14.00;51.53
79372;BME280;68914;51.262;6.802;2023-05-01T04:03:07;101186.44;;;13.96;51.64
79372;BME280;68914;51.262;6.802;2023-05-01T04:04:10;101192.41;;;13.85;51.58
79372;BME280;68914;51.262;6.802;2023-05-01T04:05:14;101191.81;;;13.76;52.43
79372;BME280;68914;51.262;6.802;2023-05-01T04:06:19;101192.63;;;13.83;51.87
79372;BME280;68914;51.262;6.802;2023-05-01T04:07:22;101183.06;;;13.75;51.86
79372;BME280;68914;51.262;6.802;2023-05-01T04:08:23;101194.94;;;13.66;51.95
79372;BME280;68914;51.262;6.802;2023-05-01T04:09:24;101192.63;;;13.76;51.70
79372;BME280;68914;51.262;6.802;2023-05-01T04:10:25;101190.13;;;13.95;51.40
79372;BME280;68914;51.262;6.802;2023-05-01T04:11:30;101190.78;;;13.90;51.59
79372;BME280;68914;51.262;6.802;2023-05-01T04:12:31;101191.00;;;13.82;51.79
79372;BME280;68914;51.262;6.802;2023-05-01T04:13:32;101184.44;;;13.85;51.73
79372;BME280;68914;51.262;6.802;2023-05-01T04:14:32;101189.97;;;13.83;51.75
79372;BME280;68914;51.262;6.802;2023-05-01T04:15:33;101186.59;;;13.63;51.95
79372;BME280;68914;51.262;6.802;2023-05-01T04:16:34;101189.81;;;13.78;51.84
79372;BME280;68914;51.262;6.802;2023-05-01T04:17:35;101186.38;;;13.64;52.14
79372;BME280;68914;51.262;6.802;2023-05-01T04:18:36;101181.69;;;13.53;52.45
79372;BME280;68914;51.262;6.802;2023-05-01T04:19:37;101180.91;;;13.46;52.66
79372;BME280;68914;51.262;6.802;2023-05-01T04:20:38;101186.41;;;13.51;52.67
79372;BME280;68914;51.262;6.802;2023-05-01T04:21:40;101191.09;;;13.49;52.27
79372;BME280;68914;51.262;6.802;2023-05-01T04:22:41;101187.41;;;13.57;52.62
79372;BME280;68914;51.262;6.802;2023-05-01T04:23:42;101187.59;;;13.62;51.90
79372;BME280;68914;51.262;6.802;2023-05-01T04:24:43;101189.75;;;13.85;51.61
79372;BME280;68914;51.262;6.802;2023-05-01T04:25:43;101188.13;;;13.84;51.45
79372;BME280;68914;51.262;6.802;2023-05-01T04:26:49;101187.97;;;13.78;51.63
79372;BME280;68914;51.262;6.802;2023-05-01T04:27:50;101185.31;;;13.78;51.93
79372;BME280;68914;51.262;6.802;2023-05-01T04:28:51;101183.31;;;13.54;52.42
79372;BME280;68914;51.262;6.802;2023-05-01T04:29:56;101191.00;;;13.82;51.55
79372;BME280;68914;51.262;6.802;2023-05-01T04:30:57;101181.25;;;13.69;51.95
79372;BME280;68914;51.262;6.802;2023-05-01T04:31:57;101182.66;;;13.72;51.54
79372;BME280;68914;51.262;6.802;2023-05-01T04:32:58;101178.13;;;13.86;51.52
79372;BME280;68914;51.262;6.802;2023-05-01T04:33:59;101180.19;;;13.84;51.47
79372;BME280;68914;51.262;6.802;2023-05-01T04:35:00;101177.34;;;13.78;51.92
79372;BME280;68914;51.262;6.802;2023-05-01T04:36:01;101178.53;;;13.89;51.29
79372;BME280;68914;51.262;6.802;2023-05-01T04:37:03;101175.84;;;13.96;51.59
79372;BME280;68914;51.262;6.802;2023-05-01T04:38:07;101177.84;;;14.07;50.89
79372;BME280;68914;51.262;6.802;2023-05-01T04:39:09;101175.44;;;13.99;50.90
79372;BME280;68914;51.262;6.802;2023-05-01T04:40:11;101177.06;;;14.00;50.93
79372;BME280;68914;51.262;6.802;2023-05-01T04:41:11;101175.34;;;14.12;50.58
79372;BME280;68914;51.262;6.802;2023-05-01T04:42:12;101175.03;;;13.95;51.19
79372;BME280;68914;51.262;6.802;2023-05-01T04:43:13;101180.50;;;14.07;50.68
79372;BME280;68914;51.262;6.802;2023-05-01T04:44:15;101174.16;;;14.08;50.49
79372;BME280;68914;51.262;6.802;2023-05-01T04:45:16;101179.63;;;14.13;50.63
79372;BME280;68914;51.262;6.802;2023-05-01T04:46:17;101169.16;;;14.25;50.02
79372;BME280;68914;51.262;6.802;2023-05-01T04:47:17;101171.00;;;14.24;50.56
79372;BME280;68914;51.262;6.802;2023-05-01T04:48:18;101170.34;;;14.36;49.81
79372;BME280;68914;51.262;6.802;2023-05-01T04:49:22;101172.94;;;14.04;50.66
79372;BME280;68914;51.262;6.802;2023-05-01T04:50:23;101177.13;;;14.25;50.38
79372;BME280;68914;51.262;6.802;2023-05-01T04:51:23;101177.84;;;14.07;50.84
79372;BME280;68914;51.262;6.802;2023-05-01T04:52:25;101169.75;;;13.95;50.66
79372;BME280;68914;51.262;6.802;2023-05-01T04:53:30;101180.50;;;14.07;50.79
79372;BME280;68914;51.262;6.802;2023-05-01T04:54:31;101169.50;;;14.03;50.85
79372;BME280;68914;51.262;6.802;2023-05-01T04:55:32;101176.22;;;14.06;50.59
79372;BME280;68914;51.262;6.802;2023-05-01T04:56:45;101181.53;;;13.99;50.60
79372;BME280;68914;51.262;6.802;2023-05-01T04:57:45;101177.34;;;14.23;50.37
79372;BME280;68914;51.262;6.802;2023-05-01T04:58:46;101175.25;;;14.32;50.21
79372;BME280;68914;51.262;6.802;2023-05-01T04:59:50;101175.16;;;14.14;50.83
79372;BME280;68914;51.262;6.802;2023-05-01T05:00:51;101174.09;;;14.21;50.17
79372;BME280;68914;51.262;6.802;2023-05-01T05:01:56;101180.09;;;14.42;49.70
79372;BME280;68914;51.262;6.802;2023-05-01T05:02:56;101176.44;;;14.36;49.68
79372;BME280;68914;51.262;6.802;2023-05-01T05:03:58;101185.06;;;14.32;49.94
79372;BME280;68914;51.262;6.802;2023-05-01T05:04:58;101174.34;;;14.45;49.78
79372;BME280;68914;51.262;6.802;2023-05-01T05:05:59;101180.16;;;14.28;50.00
79372;BME280;68914;51.262;6.802;2023-05-01T05:07:00;101182.13;;;14.46;49.80
79372;BME280;68914;51.262;6.802;2023-05-01T05:08:14;101183.25;;;14.25;49.85
79372;BME280;68914;51.262;6.802;2023-05-01T05:09:20;101173.94;;;14.48;49.69
79372;BME280;68914;51.262;6.802;2023-05-01T05:10:21;101174.03;;;14.66;49.17
79372;BME280;68914;51.262;6.802;2023-05-01T05:11:34;101181.06;;;14.86;48.72
79372;BME280;68914;51.262;6.802;2023-05-01T05:12:41;101181.81;;;14.93;48.69
79372;BME280;68914;51.262;6.802;2023-05-01T05:13:42;101177.97;;;14.89;48.56
79372;BME280;68914;51.262;6.802;2023-05-01T05:14:45;101177.84;;;14.77;48.86
79372;BME280;68914;51.262;6.802;2023-05-01T05:15:48;101179.50;;;14.71;48.60
79372;BME280;68914;51.262;6.802;2023-05-01T05:16:51;101179.91;;;14.75;48.75
79372;BME280;68914;51.262;6.802;2023-05-01T05:17:52;101179.66;;;14.45;49.70
79372;BME280;68914;51.262;6.802;2023-05-01T05:18:55;101183.41;;;14.69;48.71
79372;BME280;68914;51.262;6.802;2023-05-01T05:19:56;101179.94;;;14.68;48.64
79372;BME280;68914;51.262;6.802;2023-05-01T05:20:57;101173.78;;;14.74;49.22
79372;BME280;68914;51.262;6.802;2023-05-01T05:22:01;101179.31;;;14.98;48.94
79372;BME280;68914;51.262;6.802;2023-05-01T05:23:01;101178.31;;;14.67;48.95
79372;BME280;68914;51.262;6.802;2023-05-01T05:24:02;101177.53;;;14.60;49.26
79372;BME280;68914;51.262;6.802;2023-05-01T05:25:03;101180.16;;;14.92;48.67
79372;BME280;68914;51.262;6.802;2023-05-01T05:26:06;101178.00;;;15.07;47.79
79372;BME280;68914;51.262;6.802;2023-05-01T05:27:06;101175.19;;;15.02;48.73
79372;BME280;68914;51.262;6.802;2023-05-01T05:28:07;101181.75;;;14.99;48.45
79372;BME280;68914;51.262;6.802;2023-05-01T05:29:08;101187.38;;;15.10;48.38
79372;BME280;68914;51.262;6.802;2023-05-01T05:30:09;101178.69;;;15.21;48.06
79372;BME280;68914;51.262;6.802;2023-05-01T05:31:11;101186.63;;;15.03;48.38
79372;BME280;68914;51.262;6.802;2023-05-01T05:32:11;101180.00;;;15.12;47.67
79372;BME280;68914;51.262;6.802;2023-05-01T05:33:12;101183.69;;;14.86;48.25
79372;BME280;68914;51.262;6.802;2023-05-01T05:34:13;101178.13;;;14.94;48.53
79372;BME280;68914;51.262;6.802;2023-05-01T05:35:14;101187.19;;;15.30;47.76
79372;BME280;68914;51.262;6.802;2023-05-01T05:36:15;101183.41;;;15.19;47.70
79372;BME280;68914;51.262;6.802;2023-05-01T05:37:17;101187.16;;;15.11;47.98
79372;BME280;68914;51.262;6.802;2023-05-01T05:38:24;101184.34;;;15.06;47.92
79372;BME280;68914;51.262;6.802;2023-05-01T05:39:27;101186.25;;;15.42;47.51
79372;BME280;68914;51.262;6.802;2023-05-01T05:40:28;101181.53;;;15.44;47.37
79372;BME280;68914;51.262;6.802;2023-05-01T05:41:30;101178.28;;;15.61;47.04
79372;BME280;68914;51.262;6.802;2023-05-01T05:42:33;101180.81;;;15.74;46.86
79372;BME280;68914;51.262;6.802;2023-05-01T05:43:38;101181.69;;;15.49;46.98
79372;BME280;68914;51.262;6.802;2023-05-01T05:44:40;101183.59;;;15.42;46.69
79372;BME280;68914;51.262;6.802;2023-05-01T05:45:42;101174.50;;;15.50;47.18
79372;BME280;68914;51.262;6.802;2023-05-01T05:46:43;101178.88;;;15.63;46.61